sensor_id;sensor_type;location;lat;lon;timestamp;P1;durP1;ratioP1;P2;durP2;ratioP2
17648;SDS011;8943;51.110;-4.158;2023-05-29T00:00:34;10.87;;;3.83;;
17648;SDS011;8943;51.110;-4.158;2023-05-29T00:03:03;9.07;;;3.73;;
17648;SDS011;8943;51.110;-4.158;2023-05-29T00:05:32;12.13;;;4.10;;
17648;SDS011;8943;51.110;-4.158;2023-05-29T00:08:00;10.00;;;4.07;;
17648;SDS011;8943;51.110;-4.158;2023-05-29T00:10:29;11.60;;;3.70;;
17648;SDS011;8943;51.110;-4.158;2023-05-29T00:13:04;11.27;;;4.30;;
17648;SDS011;8943;51.110;-4.158;2023-05-29T00:15:35;11.77;;;4.30;;
17648;SDS011;8943;51.110;-4.158;2023-05-29T00:18:04;11.50;;;4.60;;
17648;SDS011;8943;51.110;-4.158;2023-05-29T00:20:33;12.87;;;4.07;;
17648;SDS011;8943;51.110;-4.158;2023-05-29T00:23:03;11.33;;;4.60;;
17648;SDS011;8943;51.110;-4.158;2023-05-29T00:25:32;10.60;;;4.30;;
17648;SDS011;8943;51.110;-4.158;2023-05-29T00:28:02;11.03;;;4.50;;
17648;SDS011;8943;51.110;-4.158;2023-05-29T00:30:37;9.33;;;4.27;;
17648;SDS011;8943;51.110;-4.158;2023-05-29T00:33:07;10.20;;;4.90;;
17648;SDS011;8943;51.110;-4.158;2023-05-29T00:35:36;10.93;;;4.90;;
17648;SDS011;8943;51.110;-4.158;2023-05-29T00:38:07;11.40;;;4.60;;
17648;SDS011;8943;51.110;-4.158;2023-05-29T00:40:39;8.23;;;4.27;;
17648;SDS011;8943;51.110;-4.158;2023-05-29T00:43:14;12.90;;;4.50;;
17648;SDS011;8943;51.110;-4.158;2023-05-29T00:45:56;12.67;;;4.77;;
17648;SDS011;8943;51.110;-4.158;2023-05-29T00:48:28;13.23;;;4.40;;
17648;SDS011;8943;51.110;-4.158;2023-05-29T00:51:02;11.23;;;4.97;;
17648;SDS011;8943;51.110;-4.158;2023-05-29T00:53:35;11.40;;;5.13;;
17648;SDS011;8943;51.110;-4.158;2023-05-29T00:56:06;9.63;;;4.77;;
17648;SDS011;8943;51.110;-4.158;2023-05-29T00:58:43;11.30;;;4.50;;
17648;SDS011;8943;51.110;-4.158;2023-05-29T01:01:17;11.47;;;4.53;;
17648;SDS011;8943;51.110;-4.158;2023-05-29T01:04:00;10.17;;;4.40;;
17648;SDS011;8943;51.110;-4.158;2023-05-29T01:06:31;12.30;;;4.90;;
17648;SDS011;8943;51.110;-4.158;2023-05-29T01:08:59;12.07;;;4.60;;
17648;SDS011;8943;51.110;-4.158;2023-05-29T01:11:31;11.20;;;5.23;;
17648;SDS011;8943;51.110;-4.158;2023-05-29T01:14:23;12.43;;;4.83;;
17648;SDS011;8943;51.110;-4.158;2023-05-29T01:17:10;15.47;;;5.67;;
17648;SDS011;8943;51.110;-4.158;2023-05-29T01:19:45;14.00;;;4.70;;
17648;SDS011;8943;51.110;-4.158;2023-05-29T01:22:35;15.27;;;5.20;;
17648;SDS011;8943;51.110;-4.158;2023-05-29T01:25:29;13.70;;;5.17;;
17648;SDS011;8943;51.110;-4.158;2023-05-29T01:28:08;11.33;;;4.80;;
17648;SDS011;8943;51.110;-4.158;2023-05-29T01:30:39;14.57;;;5.27;;
17648;SDS011;8943;51.110;-4.158;2023-05-29T01:33:10;14.40;;;5.70;;
17648;SDS011;8943;51.110;-4.158;2023-05-29T01:35:46;12.57;;;5.10;;
17648;SDS011;8943;51.110;-4.158;2023-05-29T01:38:15;12.03;;;5.27;;
17648;SDS011;8943;51.110;-4.158;2023-05-29T01:40:46;12.37;;;5.17;;
17648;SDS011;8943;51.110;-4.158;2023-05-29T01:43:25;13.40;;;6.40;;
17648;SDS011;8943;51.110;-4.158;2023-05-29T01:46:00;12.60;;;5.57;;
17648;SDS011;8943;51.110;-4.158;2023-05-29T01:48:48;13.47;;;5.17;;
17648;SDS011;8943;51.110;-4.158;2023-05-29T01:51:21;16.07;;;5.67;;
17648;SDS011;8943;51.110;-4.158;2023-05-29T01:54:08;12.07;;;6.07;;
17648;SDS011;8943;51.110;-4.158;2023-05-29T01:56:51;11.73;;;5.50;;
17648;SDS011;8943;51.110;-4.158;2023-05-29T01:59:26;12.07;;;5.13;;
17648;SDS011;8943;51.110;-4.158;2023-05-29T02:01:57;18.17;;;5.67;;
17648;SDS011;8943;51.110;-4.158;2023-05-29T02:04:34;12.40;;;5.13;;
17648;SDS011;8943;51.110;-4.158;2023-05-29T02:07:05;11.33;;;5.57;;
17648;SDS011;8943;51.110;-4.158;2023-05-29T02:09:38;12.37;;;5.03;;
17648;SDS011;8943;51.110;-4.158;2023-05-29T02:12:13;11.17;;;5.50;;
17648;SDS011;8943;51.110;-4.158;2023-05-29T02:14:48;11.57;;;5.37;;
17648;SDS011;8943;51.110;-4.158;2023-05-29T02:17:21;13.97;;;5.37;;
17648;SDS011;8943;51.110;-4.158;2023-05-29T02:20:05;14.60;;;5.57;;
17648;SDS011;8943;51.110;-4.158;2023-05-29T02:22:36;14.97;;;6.33;;
17648;SDS011;8943;51.110;-4.158;2023-05-29T02:25:19;16.37;;;5.87;;
17648;SDS011;8943;51.110;-4.158;2023-05-29T02:27:51;15.07;;;5.17;;
17648;SDS011;8943;51.110;-4.158;2023-05-29T02:33:07;12.27;;;5.33;;
17648;SDS011;8943;51.110;-4.158;2023-05-29T02:35:39;15.13;;;5.43;;
17648;SDS011;8943;51.110;-4.158;2023-05-29T02:38:09;9.70;;;5.00;;
17648;SDS011;8943;51.110;-4.158;2023-05-29T02:40:38;14.33;;;5.70;;
17648;SDS011;8943;51.110;-4.158;2023-05-29T02:43:07;11.30;;;4.63;;
17648;SDS011;8943;51.110;-4.158;2023-05-29T02:45:39;11.70;;;5.33;;
17648;SDS011;8943;51.110;-4.158;2023-05-29T02:48:07;10.90;;;4.73;;
17648;SDS011;8943;51.110;-4.158;2023-05-29T02:50:36;12.07;;;4.60;;
17648;SDS011;8943;51.110;-4.158;2023-05-29T02:53:06;11.73;;;4.97;;
17648;SDS011;8943;51.110;-4.158;2023-05-29T02:55:36;13.67;;;4.70;;
17648;SDS011;8943;51.110;-4.158;2023-05-29T02:58:07;10.03;;;4.57;;
17648;SDS011;8943;51.110;-4.158;2023-05-29T03:00:36;12.10;;;4.13;;
17648;SDS011;8943;51.110;-4.158;2023-05-29T03:03:07;9.97;;;4.33;;
17648;SDS011;8943;51.110;-4.158;2023-05-29T03:05:36;9.87;;;4.10;;
17648;SDS011;8943;51.110;-4.158;2023-05-29T03:08:08;9.37;;;3.73;;
17648;SDS011;8943;51.110;-4.158;2023-05-29T03:10:37;15.07;;;4.13;;
17648;SDS011;8943;51.110;-4.158;2023-05-29T03:13:08;9.07;;;3.90;;
17648;SDS011;8943;51.110;-4.158;2023-05-29T03:15:51;12.13;;;4.00;;
17648;SDS011;8943;51.110;-4.158;2023-05-29T03:18:38;10.70;;;3.90;;
17648;SDS011;8943;51.110;-4.158;2023-05-29T03:21:08;11.27;;;3.90;;
17648;SDS011;8943;51.110;-4.158;2023-05-29T03:23:39;8.13;;;4.03;;
17648;SDS011;8943;51.110;-4.158;2023-05-29T03:26:08;14.57;;;4.43;;
17648;SDS011;8943;51.110;-4.158;2023-05-29T03:28:38;8.53;;;3.17;;
17648;SDS011;8943;51.110;-4.158;2023-05-29T03:31:06;11.47;;;4.37;;
17648;SDS011;8943;51.110;-4.158;2023-05-29T03:33:35;7.93;;;3.57;;
17648;SDS011;8943;51.110;-4.158;2023-05-29T03:36:08;9.60;;;3.73;;
17648;SDS011;8943;51.110;-4.158;2023-05-29T03:38:39;9.27;;;2.90;;
17648;SDS011;8943;51.110;-4.158;2023-05-29T03:41:07;8.27;;;3.03;;
17648;SDS011;8943;51.110;-4.158;2023-05-29T03:43:37;8.87;;;3.33;;
17648;SDS011;8943;51.110;-4.158;2023-05-29T03:46:06;13.97;;;4.47;;
17648;SDS011;8943;51.110;-4.158;2023-05-29T03:48:47;7.37;;;3.00;;
17648;SDS011;8943;51.110;-4.158;2023-05-29T03:51:17;11.43;;;3.00;;
17648;SDS011;8943;51.110;-4.158;2023-05-29T03:56:32;10.90;;;3.30;;
17648;SDS011;8943;51.110;-4.158;2023-05-29T04:20:22;8.20;;;2.70;;
17648;SDS011;8943;51.110;-4.158;2023-05-29T04:26:00;9.27;;;2.80;;
17648;SDS011;8943;51.110;-4.158;2023-05-29T05:16:42;9.77;;;2.50;;
17648;SDS011;8943;51.110;-4.158;2023-05-29T05:19:19;5.63;;;2.20;;
17648;SDS011;8943;51.110;-4.158;2023-05-29T05:21:48;10.50;;;2.60;;
17648;SDS011;8943;51.110;-4.158;2023-05-29T05:24:43;9.17;;;2.13;;
17648;SDS011;8943;51.110;-4.158;2023-05-29T05:27:27;8.50;;;2.97;;
17648;SDS011;8943;51.110;-4.158;2023-05-29T05:30:06;7.60;;;3.00;;
17648;SDS011;8943;51.110;-4.158;2023-05-29T05:33:06;10.53;;;2.23;;
17648;SDS011;8943;51.110;-4.158;2023-05-29T05:35:46;9.23;;;2.17;;
17648;SDS011;8943;51.110;-4.158;2023-05-29T05:53:35;8.50;;;2.17;;
17648;SDS011;8943;51.110;-4.158;2023-05-29T05:56:13;8.90;;;2.43;;
17648;SDS011;8943;51.110;-4.158;2023-05-29T05:58:59;8.07;;;2.83;;
17648;SDS011;8943;51.110;-4.158;2023-05-29T06:01:27;7.73;;;2.57;;
17648;SDS011;8943;51.110;-4.158;2023-05-29T06:03:58;10.37;;;2.43;;
17648;SDS011;8943;51.110;-4.158;2023-05-29T06:07:01;6.50;;;2.40;;
17648;SDS011;8943;51.110;-4.158;2023-05-29T06:10:07;7.47;;;2.27;;
17648;SDS011;8943;51.110;-4.158;2023-05-29T06:12:35;7.30;;;2.40;;
17648;SDS011;8943;51.110;-4.158;2023-05-29T06:15:33;7.90;;;2.90;;
17648;SDS011;8943;51.110;-4.158;2023-05-29T06:18:04;6.17;;;1.90;;
17648;SDS011;8943;51.110;-4.158;2023-05-29T06:20:32;9.13;;;2.60;;
17648;SDS011;8943;51.110;-4.158;2023-05-29T06:23:01;10.77;;;2.70;;
17648;SDS011;8943;51.110;-4.158;2023-05-29T06:25:30;6.77;;;2.50;;
17648;SDS011;8943;51.110;-4.158;2023-05-29T06:27:59;10.30;;;2.43;;
17648;SDS011;8943;51.110;-4.158;2023-05-29T06:30:39;9.83;;;2.50;;
17648;SDS011;8943;51.110;-4.158;2023-05-29T06:33:11;8.53;;;2.10;;
17648;SDS011;8943;51.110;-4.158;2023-05-29T06:35:40;9.77;;;2.50;;
17648;SDS011;8943;51.110;-4.158;2023-05-29T06:38:08;6.07;;;2.20;;
17648;SDS011;8943;51.110;-4.158;2023-05-29T06:40:38;8.27;;;2.33;;
17648;SDS011;8943;51.110;-4.158;2023-05-29T06:43:06;6.73;;;2.10;;
17648;SDS011;8943;51.110;-4.158;2023-05-29T06:45:36;11.20;;;2.40;;
17648;SDS011;8943;51.110;-4.158;2023-05-29T06:48:04;7.53;;;2.50;;
17648;SDS011;8943;51.110;-4.158;2023-05-29T06:50:34;6.40;;;2.20;;
17648;SDS011;8943;51.110;-4.158;2023-05-29T06:53:02;8.93;;;2.30;;
17648;SDS011;8943;51.110;-4.158;2023-05-29T06:55:30;7.13;;;2.13;;
17648;SDS011;8943;51.110;-4.158;2023-05-29T06:58:00;7.43;;;2.60;;
17648;SDS011;8943;51.110;-4.158;2023-05-29T07:00:29;7.00;;;2.47;;
17648;SDS011;8943;51.110;-4.158;2023-05-29T07:02:57;6.47;;;2.47;;
17648;SDS011;8943;51.110;-4.158;2023-05-29T07:05:26;5.83;;;2.17;;
17648;SDS011;8943;51.110;-4.158;2023-05-29T07:07:56;6.27;;;2.30;;
17648;SDS011;8943;51.110;-4.158;2023-05-29T07:10:25;11.40;;;2.63;;
17648;SDS011;8943;51.110;-4.158;2023-05-29T07:12:53;9.57;;;2.30;;
17648;SDS011;8943;51.110;-4.158;2023-05-29T07:15:23;10.10;;;2.50;;
17648;SDS011;8943;51.110;-4.158;2023-05-29T07:17:51;12.70;;;2.80;;
17648;SDS011;8943;51.110;-4.158;2023-05-29T07:20:19;7.03;;;2.63;;
17648;SDS011;8943;51.110;-4.158;2023-05-29T07:22:47;7.93;;;2.80;;
17648;SDS011;8943;51.110;-4.158;2023-05-29T07:25:15;8.10;;;2.77;;
17648;SDS011;8943;51.110;-4.158;2023-05-29T07:27:43;8.40;;;2.87;;
17648;SDS011;8943;51.110;-4.158;2023-05-29T07:30:12;10.87;;;2.70;;
17648;SDS011;8943;51.110;-4.158;2023-05-29T07:32:43;8.13;;;2.30;;
17648;SDS011;8943;51.110;-4.158;2023-05-29T07:35:11;9.27;;;2.50;;
17648;SDS011;8943;51.110;-4.158;2023-05-29T07:37:39;8.57;;;2.80;;
17648;SDS011;8943;51.110;-4.158;2023-05-29T07:40:08;7.90;;;2.63;;
17648;SDS011;8943;51.110;-4.158;2023-05-29T07:42:39;7.97;;;2.53;;
17648;SDS011;8943;51.110;-4.158;2023-05-29T07:45:08;6.30;;;2.00;;
17648;SDS011;8943;51.110;-4.158;2023-05-29T07:47:37;8.40;;;2.47;;
17648;SDS011;8943;51.110;-4.158;2023-05-29T07:50:08;10.40;;;2.20;;
17648;SDS011;8943;51.110;-4.158;2023-05-29T07:52:37;7.90;;;2.43;;
17648;SDS011;8943;51.110;-4.158;2023-05-29T07:55:05;6.00;;;2.10;;
17648;SDS011;8943;51.110;-4.158;2023-05-29T07:57:34;9.23;;;2.70;;
17648;SDS011;8943;51.110;-4.158;2023-05-29T08:00:03;6.57;;;2.63;;
17648;SDS011;8943;51.110;-4.158;2023-05-29T08:02:35;7.40;;;2.13;;
17648;SDS011;8943;51.110;-4.158;2023-05-29T08:05:08;8.47;;;2.63;;
17648;SDS011;8943;51.110;-4.158;2023-05-29T08:07:46;7.17;;;2.37;;
17648;SDS011;8943;51.110;-4.158;2023-05-29T08:10:15;9.17;;;2.60;;
17648;SDS011;8943;51.110;-4.158;2023-05-29T08:12:43;10.37;;;2.90;;
17648;SDS011;8943;51.110;-4.158;2023-05-29T08:15:13;5.27;;;1.73;;
17648;SDS011;8943;51.110;-4.158;2023-05-29T08:17:42;9.93;;;2.83;;
17648;SDS011;8943;51.110;-4.158;2023-05-29T08:20:12;7.33;;;2.47;;
17648;SDS011;8943;51.110;-4.158;2023-05-29T08:22:41;11.50;;;2.90;;
17648;SDS011;8943;51.110;-4.158;2023-05-29T08:25:09;9.77;;;2.27;;
17648;SDS011;8943;51.110;-4.158;2023-05-29T08:27:41;4.10;;;2.10;;
17648;SDS011;8943;51.110;-4.158;2023-05-29T08:30:11;12.77;;;2.40;;
17648;SDS011;8943;51.110;-4.158;2023-05-29T08:32:42;7.40;;;2.00;;
17648;SDS011;8943;51.110;-4.158;2023-05-29T08:35:12;7.70;;;2.27;;
17648;SDS011;8943;51.110;-4.158;2023-05-29T08:37:41;6.70;;;2.13;;
17648;SDS011;8943;51.110;-4.158;2023-05-29T08:40:10;13.13;;;5.77;;
17648;SDS011;8943;51.110;-4.158;2023-05-29T08:42:40;12.93;;;2.87;;
17648;SDS011;8943;51.110;-4.158;2023-05-29T08:45:14;21.33;;;3.17;;
17648;SDS011;8943;51.110;-4.158;2023-05-29T08:47:44;11.17;;;2.77;;
17648;SDS011;8943;51.110;-4.158;2023-05-29T08:50:16;11.50;;;2.93;;
17648;SDS011;8943;51.110;-4.158;2023-05-29T08:52:45;8.87;;;3.00;;
17648;SDS011;8943;51.110;-4.158;2023-05-29T08:55:14;8.33;;;2.20;;
17648;SDS011;8943;51.110;-4.158;2023-05-29T08:57:42;8.33;;;2.50;;
17648;SDS011;8943;51.110;-4.158;2023-05-29T09:00:12;10.10;;;2.83;;
17648;SDS011;8943;51.110;-4.158;2023-05-29T09:02:41;9.17;;;2.60;;
17648;SDS011;8943;51.110;-4.158;2023-05-29T09:05:11;7.67;;;2.07;;
17648;SDS011;8943;51.110;-4.158;2023-05-29T09:07:42;10.97;;;2.60;;
17648;SDS011;8943;51.110;-4.158;2023-05-29T09:10:10;13.07;;;2.97;;
17648;SDS011;8943;51.110;-4.158;2023-05-29T09:12:39;8.27;;;2.67;;
17648;SDS011;8943;51.110;-4.158;2023-05-29T09:15:16;12.73;;;2.63;;
17648;SDS011;8943;51.110;-4.158;2023-05-29T09:17:50;7.17;;;2.70;;
17648;SDS011;8943;51.110;-4.158;2023-05-29T09:20:20;5.00;;;1.93;;
17648;SDS011;8943;51.110;-4.158;2023-05-29T09:22:55;5.40;;;1.90;;
17648;SDS011;8943;51.110;-4.158;2023-05-29T09:25:25;6.57;;;2.20;;
17648;SDS011;8943;51.110;-4.158;2023-05-29T09:27:55;4.60;;;2.07;;
17648;SDS011;8943;51.110;-4.158;2023-05-29T09:30:37;9.27;;;2.10;;
17648;SDS011;8943;51.110;-4.158;2023-05-29T09:33:07;8.73;;;1.83;;
17648;SDS011;8943;51.110;-4.158;2023-05-29T09:35:37;6.30;;;2.30;;
17648;SDS011;8943;51.110;-4.158;2023-05-29T09:38:10;10.10;;;2.23;;
17648;SDS011;8943;51.110;-4.158;2023-05-29T09:40:59;8.00;;;2.07;;
17648;SDS011;8943;51.110;-4.158;2023-05-29T09:43:32;8.20;;;2.03;;
17648;SDS011;8943;51.110;-4.158;2023-05-29T09:46:01;7.90;;;2.47;;
17648;SDS011;8943;51.110;-4.158;2023-05-29T09:48:29;11.43;;;3.03;;
17648;SDS011;8943;51.110;-4.158;2023-05-29T09:51:00;8.20;;;2.43;;
17648;SDS011;8943;51.110;-4.158;2023-05-29T09:53:31;9.70;;;2.33;;
17648;SDS011;8943;51.110;-4.158;2023-05-29T09:56:00;6.10;;;2.23;;
17648;SDS011;8943;51.110;-4.158;2023-05-29T09:58:30;11.33;;;2.83;;
17648;SDS011;8943;51.110;-4.158;2023-05-29T10:01:00;8.27;;;2.30;;
17648;SDS011;8943;51.110;-4.158;2023-05-29T10:03:29;9.23;;;2.40;;
17648;SDS011;8943;51.110;-4.158;2023-05-29T10:06:01;10.30;;;2.57;;
17648;SDS011;8943;51.110;-4.158;2023-05-29T10:08:34;7.10;;;2.30;;
17648;SDS011;8943;51.110;-4.158;2023-05-29T10:11:05;8.40;;;2.93;;
17648;SDS011;8943;51.110;-4.158;2023-05-29T10:13:36;6.20;;;2.50;;
17648;SDS011;8943;51.110;-4.158;2023-05-29T10:16:10;7.50;;;2.30;;
17648;SDS011;8943;51.110;-4.158;2023-05-29T10:18:42;6.10;;;2.50;;
17648;SDS011;8943;51.110;-4.158;2023-05-29T10:21:16;6.60;;;2.23;;
17648;SDS011;8943;51.110;-4.158;2023-05-29T10:23:47;5.47;;;2.30;;
17648;SDS011;8943;51.110;-4.158;2023-05-29T10:26:19;8.83;;;2.47;;
17648;SDS011;8943;51.110;-4.158;2023-05-29T10:28:50;11.90;;;2.90;;
17648;SDS011;8943;51.110;-4.158;2023-05-29T10:31:28;8.30;;;2.40;;
17648;SDS011;8943;51.110;-4.158;2023-05-29T10:34:22;5.33;;;1.70;;
17648;SDS011;8943;51.110;-4.158;2023-05-29T10:37:01;5.87;;;1.87;;
17648;SDS011;8943;51.110;-4.158;2023-05-29T10:39:35;6.83;;;2.13;;
17648;SDS011;8943;51.110;-4.158;2023-05-29T10:42:06;7.10;;;2.10;;
17648;SDS011;8943;51.110;-4.158;2023-05-29T10:48:36;7.40;;;2.03;;
17648;SDS011;8943;51.110;-4.158;2023-05-29T10:51:07;5.40;;;2.07;;
17648;SDS011;8943;51.110;-4.158;2023-05-29T10:53:37;4.40;;;2.07;;
17648;SDS011;8943;51.110;-4.158;2023-05-29T10:56:10;8.57;;;1.97;;
17648;SDS011;8943;51.110;-4.158;2023-05-29T10:58:43;8.17;;;2.20;;
17648;SDS011;8943;51.110;-4.158;2023-05-29T11:01:12;7.67;;;2.13;;
17648;SDS011;8943;51.110;-4.158;2023-05-29T11:06:58;4.93;;;1.80;;
17648;SDS011;8943;51.110;-4.158;2023-05-29T11:09:31;7.83;;;2.30;;
17648;SDS011;8943;51.110;-4.158;2023-05-29T11:12:12;11.03;;;2.70;;
17648;SDS011;8943;51.110;-4.158;2023-05-29T11:14:54;8.73;;;2.10;;
17648;SDS011;8943;51.110;-4.158;2023-05-29T11:17:43;2.93;;;1.97;;
17648;SDS011;8943;51.110;-4.158;2023-05-29T11:23:17;6.73;;;2.23;;
17648;SDS011;8943;51.110;-4.158;2023-05-29T11:26:18;4.53;;;1.70;;
17648;SDS011;8943;51.110;-4.158;2023-05-29T11:29:07;6.57;;;1.87;;
17648;SDS011;8943;51.110;-4.158;2023-05-29T11:31:39;3.30;;;2.20;;
17648;SDS011;8943;51.110;-4.158;2023-05-29T11:34:09;12.03;;;2.67;;
17648;SDS011;8943;51.110;-4.158;2023-05-29T11:36:53;5.23;;;1.70;;
17648;SDS011;8943;51.110;-4.158;2023-05-29T11:39:37;7.90;;;2.47;;
17648;SDS011;8943;51.110;-4.158;2023-05-29T11:42:34;3.83;;;1.67;;
17648;SDS011;8943;51.110;-4.158;2023-05-29T11:45:32;7.10;;;2.30;;
17648;SDS011;8943;51.110;-4.158;2023-05-29T11:48:01;4.00;;;1.90;;
17648;SDS011;8943;51.110;-4.158;2023-05-29T11:50:35;5.43;;;1.93;;
17648;SDS011;8943;51.110;-4.158;2023-05-29T11:53:06;5.47;;;2.00;;
17648;SDS011;8943;51.110;-4.158;2023-05-29T11:55:47;8.53;;;1.93;;
17648;SDS011;8943;51.110;-4.158;2023-05-29T11:58:16;5.63;;;1.80;;
17648;SDS011;8943;51.110;-4.158;2023-05-29T12:00:58;6.93;;;2.00;;
17648;SDS011;8943;51.110;-4.158;2023-05-29T12:03:41;7.10;;;1.77;;
17648;SDS011;8943;51.110;-4.158;2023-05-29T12:09:02;4.77;;;2.00;;
17648;SDS011;8943;51.110;-4.158;2023-05-29T12:11:34;5.00;;;2.40;;
17648;SDS011;8943;51.110;-4.158;2023-05-29T12:14:10;7.70;;;2.50;;
17648;SDS011;8943;51.110;-4.158;2023-05-29T12:19:47;4.97;;;1.97;;
17648;SDS011;8943;51.110;-4.158;2023-05-29T12:22:30;3.63;;;1.70;;
17648;SDS011;8943;51.110;-4.158;2023-05-29T12:25:03;5.73;;;2.27;;
17648;SDS011;8943;51.110;-4.158;2023-05-29T12:27:37;5.13;;;1.93;;
17648;SDS011;8943;51.110;-4.158;2023-05-29T12:30:19;7.67;;;2.07;;
17648;SDS011;8943;51.110;-4.158;2023-05-29T12:33:01;4.83;;;2.00;;
17648;SDS011;8943;51.110;-4.158;2023-05-29T12:39:27;5.10;;;1.93;;
17648;SDS011;8943;51.110;-4.158;2023-05-29T12:41:59;5.13;;;1.93;;
17648;SDS011;8943;51.110;-4.158;2023-05-29T12:44:29;4.93;;;2.30;;
17648;SDS011;8943;51.110;-4.158;2023-05-29T12:46:58;6.40;;;2.03;;
17648;SDS011;8943;51.110;-4.158;2023-05-29T12:49:35;4.90;;;1.90;;
17648;SDS011;8943;51.110;-4.158;2023-05-29T12:52:19;9.53;;;2.63;;
17648;SDS011;8943;51.110;-4.158;2023-05-29T12:55:18;6.23;;;1.87;;
17648;SDS011;8943;51.110;-4.158;2023-05-29T12:57:49;7.00;;;2.50;;
17648;SDS011;8943;51.110;-4.158;2023-05-29T13:00:19;4.07;;;2.00;;
17648;SDS011;8943;51.110;-4.158;2023-05-29T13:02:48;8.00;;;2.20;;
17648;SDS011;8943;51.110;-4.158;2023-05-29T13:05:50;7.37;;;2.03;;
17648;SDS011;8943;51.110;-4.158;2023-05-29T13:08:21;6.17;;;2.17;;
17648;SDS011;8943;51.110;-4.158;2023-05-29T13:13:36;4.28;;;2.20;;
17648;SDS011;8943;51.110;-4.158;2023-05-29T13:16:05;4.82;;;1.85;;
17648;SDS011;8943;51.110;-4.158;2023-05-29T13:18:37;5.30;;;2.17;;
17648;SDS011;8943;51.110;-4.158;2023-05-29T13:21:13;8.45;;;2.13;;
17648;SDS011;8943;51.110;-4.158;2023-05-29T13:23:48;4.13;;;1.73;;
17648;SDS011;8943;51.110;-4.158;2023-05-29T13:26:21;3.95;;;1.45;;
17648;SDS011;8943;51.110;-4.158;2023-05-29T13:29:14;5.28;;;1.90;;
17648;SDS011;8943;51.110;-4.158;2023-05-29T13:31:43;3.92;;;1.70;;
17648;SDS011;8943;51.110;-4.158;2023-05-29T13:34:23;6.10;;;2.28;;
17648;SDS011;8943;51.110;-4.158;2023-05-29T13:37:17;5.07;;;2.03;;
17648;SDS011;8943;51.110;-4.158;2023-05-29T13:39:45;5.50;;;1.80;;
17648;SDS011;8943;51.110;-4.158;2023-05-29T13:42:19;5.65;;;2.10;;
17648;SDS011;8943;51.110;-4.158;2023-05-29T13:44:58;7.72;;;1.83;;
17648;SDS011;8943;51.110;-4.158;2023-05-29T13:47:39;7.53;;;2.40;;
17648;SDS011;8943;51.110;-4.158;2023-05-29T13:50:09;9.98;;;1.70;;
17648;SDS011;8943;51.110;-4.158;2023-05-29T13:53:12;3.78;;;1.30;;
17648;SDS011;8943;51.110;-4.158;2023-05-29T13:55:40;3.85;;;1.70;;
17648;SDS011;8943;51.110;-4.158;2023-05-29T13:58:09;5.90;;;1.80;;
17648;SDS011;8943;51.110;-4.158;2023-05-29T14:00:39;4.50;;;1.77;;
17648;SDS011;8943;51.110;-4.158;2023-05-29T14:03:29;6.60;;;1.60;;
17648;SDS011;8943;51.110;-4.158;2023-05-29T14:05:59;5.30;;;2.20;;
17648;SDS011;8943;51.110;-4.158;2023-05-29T14:08:31;9.45;;;2.00;;
17648;SDS011;8943;51.110;-4.158;2023-05-29T14:11:06;4.30;;;1.60;;
17648;SDS011;8943;51.110;-4.158;2023-05-29T14:13:35;4.22;;;1.50;;
17648;SDS011;8943;51.110;-4.158;2023-05-29T14:16:06;5.07;;;2.03;;
17648;SDS011;8943;51.110;-4.158;2023-05-29T14:18:35;6.30;;;1.90;;
17648;SDS011;8943;51.110;-4.158;2023-05-29T14:21:04;6.43;;;2.03;;
17648;SDS011;8943;51.110;-4.158;2023-05-29T14:23:32;4.55;;;1.60;;
17648;SDS011;8943;51.110;-4.158;2023-05-29T14:26:07;3.67;;;1.60;;
17648;SDS011;8943;51.110;-4.158;2023-05-29T14:28:36;3.05;;;1.70;;
17648;SDS011;8943;51.110;-4.158;2023-05-29T14:31:06;4.95;;;1.80;;
17648;SDS011;8943;51.110;-4.158;2023-05-29T14:33:40;4.72;;;1.90;;
17648;SDS011;8943;51.110;-4.158;2023-05-29T14:49:57;4.80;;;1.92;;
17648;SDS011;8943;51.110;-4.158;2023-05-29T14:52:27;4.50;;;1.50;;
17648;SDS011;8943;51.110;-4.158;2023-05-29T14:55:06;5.65;;;1.75;;
17648;SDS011;8943;51.110;-4.158;2023-05-29T14:57:50;4.68;;;1.70;;
17648;SDS011;8943;51.110;-4.158;2023-05-29T15:00:30;3.28;;;1.48;;
17648;SDS011;8943;51.110;-4.158;2023-05-29T15:03:05;4.30;;;1.58;;
17648;SDS011;8943;51.110;-4.158;2023-05-29T15:05:35;8.02;;;1.65;;
17648;SDS011;8943;51.110;-4.158;2023-05-29T15:08:04;5.07;;;1.73;;
17648;SDS011;8943;51.110;-4.158;2023-05-29T15:10:45;4.07;;;1.50;;
17648;SDS011;8943;51.110;-4.158;2023-05-29T15:13:18;4.43;;;1.65;;
17648;SDS011;8943;51.110;-4.158;2023-05-29T15:16:02;5.78;;;1.50;;
17648;SDS011;8943;51.110;-4.158;2023-05-29T15:18:40;3.55;;;1.58;;
17648;SDS011;8943;51.110;-4.158;2023-05-29T15:21:26;5.53;;;1.80;;
17648;SDS011;8943;51.110;-4.158;2023-05-29T15:24:02;5.47;;;1.60;;
17648;SDS011;8943;51.110;-4.158;2023-05-29T15:26:55;4.53;;;1.50;;
17648;SDS011;8943;51.110;-4.158;2023-05-29T15:29:31;6.60;;;1.77;;
17648;SDS011;8943;51.110;-4.158;2023-05-29T15:35:24;2.65;;;1.38;;
17648;SDS011;8943;51.110;-4.158;2023-05-29T15:41:15;3.50;;;1.50;;
17648;SDS011;8943;51.110;-4.158;2023-05-29T15:43:44;4.88;;;1.70;;
17648;SDS011;8943;51.110;-4.158;2023-05-29T15:46:14;3.95;;;1.50;;
17648;SDS011;8943;51.110;-4.158;2023-05-29T15:48:44;3.25;;;1.50;;
17648;SDS011;8943;51.110;-4.158;2023-05-29T15:51:12;4.45;;;1.40;;
17648;SDS011;8943;51.110;-4.158;2023-05-29T15:53:42;5.07;;;1.75;;
17648;SDS011;8943;51.110;-4.158;2023-05-29T15:56:13;2.92;;;1.55;;
17648;SDS011;8943;51.110;-4.158;2023-05-29T15:58:45;3.70;;;1.55;;
17648;SDS011;8943;51.110;-4.158;2023-05-29T16:01:13;3.33;;;1.52;;
17648;SDS011;8943;51.110;-4.158;2023-05-29T16:06:11;4.60;;;1.95;;
17648;SDS011;8943;51.110;-4.158;2023-05-29T16:08:42;3.88;;;1.88;;
17648;SDS011;8943;51.110;-4.158;2023-05-29T16:11:28;3.70;;;1.50;;
17648;SDS011;8943;51.110;-4.158;2023-05-29T16:13:59;3.05;;;1.48;;
17648;SDS011;8943;51.110;-4.158;2023-05-29T16:16:33;5.72;;;1.85;;
17648;SDS011;8943;51.110;-4.158;2023-05-29T16:19:02;4.65;;;2.00;;
17648;SDS011;8943;51.110;-4.158;2023-05-29T16:21:33;4.38;;;1.73;;
17648;SDS011;8943;51.110;-4.158;2023-05-29T16:24:04;3.05;;;1.58;;
17648;SDS011;8943;51.110;-4.158;2023-05-29T16:26:33;3.40;;;1.65;;
17648;SDS011;8943;51.110;-4.158;2023-05-29T16:29:04;3.60;;;1.70;;
17648;SDS011;8943;51.110;-4.158;2023-05-29T16:31:38;3.47;;;1.65;;
17648;SDS011;8943;51.110;-4.158;2023-05-29T16:34:09;6.03;;;1.90;;
17648;SDS011;8943;51.110;-4.158;2023-05-29T16:36:38;4.65;;;1.73;;
17648;SDS011;8943;51.110;-4.158;2023-05-29T16:39:12;4.32;;;1.77;;
17648;SDS011;8943;51.110;-4.158;2023-05-29T16:41:54;3.60;;;2.67;;
17648;SDS011;8943;51.110;-4.158;2023-05-29T16:49:11;5.82;;;2.97;;
17648;SDS011;8943;51.110;-4.158;2023-05-29T16:52:18;3.50;;;2.95;;
17648;SDS011;8943;51.110;-4.158;2023-05-29T16:54:53;4.25;;;1.80;;
17648;SDS011;8943;51.110;-4.158;2023-05-29T16:57:26;3.05;;;1.80;;
17648;SDS011;8943;51.110;-4.158;2023-05-29T16:59:59;4.28;;;1.70;;
17648;SDS011;8943;51.110;-4.158;2023-05-29T17:02:28;3.67;;;2.03;;
17648;SDS011;8943;51.110;-4.158;2023-05-29T17:05:03;3.10;;;1.63;;
17648;SDS011;8943;51.110;-4.158;2023-05-29T17:08:01;5.20;;;2.08;;
17648;SDS011;8943;51.110;-4.158;2023-05-29T17:10:38;2.72;;;1.70;;
17648;SDS011;8943;51.110;-4.158;2023-05-29T17:13:29;3.50;;;1.50;;
17648;SDS011;8943;51.110;-4.158;2023-05-29T17:16:07;3.95;;;1.52;;
17648;SDS011;8943;51.110;-4.158;2023-05-29T17:18:38;3.85;;;1.83;;
17648;SDS011;8943;51.110;-4.158;2023-05-29T17:21:08;6.40;;;1.98;;
17648;SDS011;8943;51.110;-4.158;2023-05-29T17:23:54;3.45;;;1.80;;
17648;SDS011;8943;51.110;-4.158;2023-05-29T17:26:35;7.40;;;4.10;;
17648;SDS011;8943;51.110;-4.158;2023-05-29T17:29:11;6.00;;;2.40;;
17648;SDS011;8943;51.110;-4.158;2023-05-29T17:35:32;5.50;;;2.90;;
17648;SDS011;8943;51.110;-4.158;2023-05-29T17:38:48;3.80;;;2.20;;
17648;SDS011;8943;51.110;-4.158;2023-05-29T17:44:38;7.10;;;1.75;;
17648;SDS011;8943;51.110;-4.158;2023-05-29T17:47:23;6.75;;;1.88;;
17648;SDS011;8943;51.110;-4.158;2023-05-29T17:52:41;4.95;;;1.90;;
17648;SDS011;8943;51.110;-4.158;2023-05-29T18:27:14;4.25;;;1.75;;
17648;SDS011;8943;51.110;-4.158;2023-05-29T18:30:08;4.32;;;2.10;;